Time;durP1;ratioP1;P1;durP2;ratioP2;P2;SDS_P1;SDS_P2;PMS_P1;PMS_P2;Temp;Humidity;BMP_temperature;BMP_pressure;BME280_temperature;BME280_humidity;BME280_pressure;Samples;Min_cycle;Max_cycle;Signal;HPM_P1;HPM_P2
2022/06/15 00:00:12;;;;;;;;;;;18.10;93.10;;;;;;4374705;32;43861;-77
2022/06/15 00:02:39;;;;;;;;;;;18.10;93.10;;;;;;4361256;32;43883;-78
2022/06/15 00:05:07;;;;;;;;;;;18.10;93.20;;;;;;4374210;32;44209;-77
2022/06/15 00:07:34;;;;;;;;;;;18.10;93.20;;;;;;4375119;32;44213;-78
2022/06/15 00:10:01;;;;;;;;;;;18.10;93.20;;;;;;4375201;32;43478;-77
2022/06/15 00:12:28;;;;;;;;;;;18.10;93.20;;;;;;4375067;32;43707;-78
2022/06/15 00:14:55;;;;;;;;;;;18.10;93.20;;;;;;4375027;32;43119;-78
2022/06/15 00:17:23;;;;;;;;;;;18.00;93.20;;;;;;4374475;32;42529;-78
2022/06/15 00:19:50;;;;;;;;;;;18.00;93.20;;;;;;4362077;32;43315;-78
2022/06/15 00:22:17;;;;;;;;;;;18.00;93.60;;;;;;4374729;32;43526;-78
2022/06/15 00:24:44;;;;;;;;;;;18.10;93.60;;;;;;4374457;32;44040;-78
2022/06/15 00:27:11;;;;;;;;;;;18.10;93.60;;;;;;4373641;32;42965;-78
2022/06/15 00:29:38;;;;;;;;;;;18.00;93.30;;;;;;4374357;32;43052;-78
2022/06/15 00:32:06;;;;;;;;;;;18.00;93.40;;;;;;4374372;32;44213;-78
2022/06/15 00:34:33;;;;;;;;;;;18.10;93.40;;;;;;4360876;32;44834;-78
2022/06/15 00:37:01;;;;;;;;;;;18.00;93.50;;;;;;4374750;32;43746;-78
2022/06/15 00:39:28;;;;;;;;;;;18.00;93.60;;;;;;4374984;32;44192;-78
2022/06/15 00:41:55;;;;;;;;;;;18.00;93.70;;;;;;4361158;32;43592;-79
2022/06/15 00:44:22;;;;;;;;;;;18.00;93.50;;;;;;4374359;32;44643;-78
2022/06/15 00:46:55;;;;;;;;;;;18.00;93.60;;;;;;4375712;32;20036;-79
2022/06/15 00:49:55;;;;;;;;;;;18.00;93.70;;;;;;4361264;32;42835;-78
2022/06/15 00:52:32;;;;;;;;;;;18.00;93.70;;;;;;4336243;32;44491;-79
2022/06/15 00:55:01;;;;;;;;;;;18.00;93.60;;;;;;4361223;32;44313;-78
2022/06/15 00:57:28;;;;;;;;;;;18.00;93.70;;;;;;4374313;32;43815;-79
2022/06/15 00:59:57;;;;;;;;;;;17.90;93.70;;;;;;4374765;32;45805;-79
2022/06/15 01:02:25;;;;;;;;;;;18.00;93.80;;;;;;4374541;32;43387;-79
2022/06/15 01:05:00;;;;;;;;;;;17.90;93.80;;;;;;4374165;32;43348;-79
2022/06/15 01:07:48;;;;;;;;;;;17.90;93.70;;;;;;4360879;32;42652;-79
2022/06/15 01:10:34;;;;;;;;;;;17.90;93.80;;;;;;4353192;32;43487;-78
2022/06/15 01:13:01;;;;;;;;;;;17.90;93.80;;;;;;4374616;32;42708;-78
2022/06/15 01:15:31;;;;;;;;;;;17.90;93.70;;;;;;4362428;32;43197;-78
2022/06/15 01:18:21;;;;;;;;;;;17.90;93.80;;;;;;4377985;32;20011;-78
2022/06/15 01:20:54;;;;;;;;;;;17.80;93.80;;;;;;4377182;32;44764;-78
2022/06/15 01:23:43;;;;;;;;;;;17.80;93.80;;;;;;4377557;32;43998;-78
2022/06/15 01:26:17;;;;;;;;;;;17.80;93.90;;;;;;4363393;32;42849;-79
2022/06/15 01:28:44;;;;;;;;;;;17.80;93.90;;;;;;4377146;32;43501;-78
2022/06/15 01:31:15;;;;;;;;;;;17.80;93.80;;;;;;4376824;32;43404;-78
2022/06/15 01:33:45;;;;;;;;;;;17.80;94.00;;;;;;4376608;32;44095;-78
2022/06/15 01:36:20;;;;;;;;;;;17.70;93.90;;;;;;4376605;32;44302;-77
2022/06/15 01:38:52;;;;;;;;;;;17.80;93.90;;;;;;4363512;32;46020;-78
2022/06/15 01:41:23;;;;;;;;;;;17.70;93.90;;;;;;4376809;32;43772;-77
2022/06/15 01:43:54;;;;;;;;;;;17.70;93.90;;;;;;4363456;32;43566;-78
2022/06/15 01:46:22;;;;;;;;;;;17.70;94.00;;;;;;4363456;32;42604;-78
2022/06/15 01:48:50;;;;;;;;;;;17.70;94.10;;;;;;4376622;32;43355;-78
2022/06/15 01:51:21;;;;;;;;;;;17.70;94.10;;;;;;4377007;32;43019;-78
2022/06/15 01:53:54;;;;;;;;;;;17.70;94.10;;;;;;4363064;32;43123;-78
2022/06/15 01:56:30;;;;;;;;;;;17.60;94.00;;;;;;4363060;32;43450;-78
2022/06/15 01:59:13;;;;;;;;;;;17.60;93.90;;;;;;4363460;32;44169;-78
2022/06/15 02:01:46;;;;;;;;;;;17.70;94.00;;;;;;4376413;32;43552;-78
2022/06/15 02:04:13;;;;;;;;;;;17.60;94.10;;;;;;4376819;32;45517;-78
2022/06/15 02:06:47;;;;;;;;;;;17.60;94.10;;;;;;4376674;32;44191;-78
2022/06/15 02:09:23;;;;;;;;;;;17.60;94.10;;;;;;4376399;32;42656;-78
2022/06/15 02:11:51;;;;;;;;;;;17.60;94.00;;;;;;4376204;32;42962;-78
2022/06/15 02:14:30;;;;;;;;;;;17.60;94.20;;;;;;4363113;32;43846;-78
2022/06/15 02:16:58;;;;;;;;;;;17.60;94.20;;;;;;4362798;32;42710;-78
2022/06/15 02:19:32;;;;;;;;;;;17.50;94.20;;;;;;4377444;32;20451;-78
2022/06/15 02:22:05;;;;;;;;;;;17.60;94.30;;;;;;4376583;32;43826;-78
2022/06/15 02:24:33;;;;;;;;;;;17.50;94.20;;;;;;4376437;32;43394;-78
2022/06/15 02:27:00;;;;;;;;;;;17.50;94.20;;;;;;4362443;32;43916;-78
2022/06/15 02:29:28;;;;;;;;;;;17.50;94.20;;;;;;4362487;32;42631;-79
2022/06/15 02:31:56;;;;;;;;;;;17.50;94.30;;;;;;4362885;32;42501;-79
2022/06/15 02:34:24;;;;;;;;;;;17.50;94.40;;;;;;4376124;32;44049;-79
2022/06/15 02:36:51;;;;;;;;;;;17.50;94.40;;;;;;4375908;32;43793;-78
2022/06/15 02:39:18;;;;;;;;;;;17.50;94.50;;;;;;4375707;32;43756;-78
2022/06/15 02:41:45;;;;;;;;;;;17.50;94.50;;;;;;4362779;32;43954;-78
2022/06/15 02:44:16;;;;;;;;;;;17.50;94.40;;;;;;4376106;32;44292;-78
2022/06/15 02:46:45;;;;;;;;;;;17.40;94.50;;;;;;4375858;32;43853;-78
2022/06/15 02:49:12;;;;;;;;;;;17.40;94.40;;;;;;4362336;32;43835;-79
2022/06/15 02:51:42;;;;;;;;;;;17.40;94.40;;;;;;4375993;32;45142;-78
2022/06/15 02:54:14;;;;;;;;;;;17.40;94.30;;;;;;4375524;32;43498;-79
2022/06/15 02:56:42;;;;;;;;;;;17.40;94.30;;;;;;4362723;32;44055;-78
2022/06/15 02:59:09;;;;;;;;;;;17.40;94.40;;;;;;4375449;32;43176;-78
2022/06/15 03:01:36;;;;;;;;;;;17.30;94.40;;;;;;4375613;32;43910;-78
2022/06/15 03:04:03;;;;;;;;;;;17.30;94.40;;;;;;4375680;32;42155;-78
2022/06/15 03:06:31;;;;;;;;;;;17.30;94.40;;;;;;4362412;32;44802;-78
2022/06/15 03:08:58;;;;;;;;;;;17.30;94.40;;;;;;4362216;32;43858;-78
2022/06/15 03:11:25;;;;;;;;;;;17.30;94.40;;;;;;4375396;32;44187;-78
2022/06/15 03:13:53;;;;;;;;;;;17.20;94.50;;;;;;4361861;32;44010;-78
2022/06/15 03:16:20;;;;;;;;;;;17.20;94.40;;;;;;4362059;32;42709;-79
2022/06/15 03:18:48;;;;;;;;;;;17.20;94.40;;;;;;4375229;32;45089;-78
2022/06/15 03:21:15;;;;;;;;;;;17.20;94.40;;;;;;4375145;32;44147;-79
2022/06/15 03:23:42;;;;;;;;;;;17.20;94.50;;;;;;4375120;32;43628;-78
2022/06/15 03:26:09;;;;;;;;;;;17.10;94.40;;;;;;4375193;32;43085;-78
2022/06/15 03:28:36;;;;;;;;;;;17.10;94.50;;;;;;4375402;32;44941;-78
2022/06/15 03:31:04;;;;;;;;;;;17.10;94.40;;;;;;4361493;32;43442;-78
2022/06/15 03:33:31;;;;;;;;;;;17.10;94.50;;;;;;4361952;32;42687;-78
2022/06/15 03:35:58;;;;;;;;;;;17.10;94.50;;;;;;4361977;32;43174;-79
2022/06/15 03:38:25;;;;;;;;;;;17.10;94.50;;;;;;4360982;32;43342;-78
2022/06/15 03:40:52;;;;;;;;;;;17.00;94.50;;;;;;4361897;32;43937;-77
2022/06/15 03:43:20;;;;;;;;;;;17.00;94.60;;;;;;4375369;32;43481;-78
2022/06/15 03:45:47;;;;;;;;;;;17.00;94.60;;;;;;4375291;32;43196;-78
2022/06/15 03:48:14;;;;;;;;;;;17.00;94.60;;;;;;4361415;32;43759;-77
2022/06/15 03:50:41;;;;;;;;;;;17.00;94.70;;;;;;4361197;32;44094;-78
2022/06/15 03:53:09;;;;;;;;;;;17.00;94.70;;;;;;4361361;32;43150;-78
2022/06/15 03:55:36;;;;;;;;;;;17.00;94.60;;;;;;4375192;32;44191;-78
2022/06/15 03:58:03;;;;;;;;;;;16.90;94.70;;;;;;4374679;32;43848;-78
2022/06/15 04:00:32;;;;;;;;;;;17.00;94.80;;;;;;4361477;32;42117;-77
2022/06/15 04:02:59;;;;;;;;;;;16.90;94.80;;;;;;4358598;32;42806;-78
2022/06/15 04:05:31;;;;;;;;;;;16.90;94.80;;;;;;4359804;32;43308;-78
2022/06/15 04:10:51;;;;;;;;;;;16.90;94.90;;;;;;4347525;32;44186;-78
2022/06/15 04:13:21;;;;;;;;;;;16.90;95.00;;;;;;4359060;32;43516;-78
2022/06/15 04:15:48;;;;;;;;;;;16.80;95.00;;;;;;4359994;32;42946;-77
2022/06/15 04:18:15;;;;;;;;;;;16.80;95.10;;;;;;4359533;32;44561;-77
2022/06/15 04:20:42;;;;;;;;;;;16.80;95.10;;;;;;4359952;32;43713;-78
2022/06/15 04:23:11;;;;;;;;;;;16.80;95.20;;;;;;4359161;33;43213;-78
2022/06/15 04:25:40;;;;;;;;;;;16.80;95.60;;;;;;4359985;32;42972;-78
2022/06/15 04:28:08;;;;;;;;;;;16.80;95.30;;;;;;4360016;33;43477;-77
2022/06/15 04:30:35;;;;;;;;;;;16.80;95.20;;;;;;4359555;32;43281;-78
2022/06/15 04:33:02;;;;;;;;;;;16.80;95.20;;;;;;4359639;32;43085;-77
2022/06/15 04:35:29;;;;;;;;;;;16.70;95.20;;;;;;4358537;33;41764;-77
2022/06/15 04:37:57;;;;;;;;;;;16.70;95.30;;;;;;4358807;33;43483;-78
2022/06/15 04:40:24;;;;;;;;;;;16.80;95.40;;;;;;4359470;33;43914;-77
2022/06/15 04:42:51;;;;;;;;;;;16.80;95.40;;;;;;4358331;33;44230;-78
2022/06/15 04:45:18;;;;;;;;;;;16.80;95.40;;;;;;4359527;33;42951;-78
2022/06/15 04:47:45;;;;;;;;;;;16.70;95.30;;;;;;4359958;33;44228;-78
2022/06/15 04:50:13;;;;;;;;;;;16.70;95.40;;;;;;4360553;32;42806;-78
2022/06/15 04:52:44;;;;;;;;;;;16.70;95.50;;;;;;4362700;32;43211;-78
2022/06/15 04:55:12;;;;;;;;;;;16.70;95.60;;;;;;4362647;32;43893;-78
2022/06/15 04:57:42;;;;;;;;;;;16.70;95.70;;;;;;4362686;32;43842;-78
2022/06/15 05:00:12;;;;;;;;;;;16.70;95.80;;;;;;4362312;32;43286;-78
2022/06/15 05:02:46;;;;;;;;;;;16.70;96.00;;;;;;4370491;32;43460;-78
2022/06/15 05:05:21;;;;;;;;;;;16.70;96.10;;;;;;4377424;32;43497;-78
2022/06/15 05:07:48;;;;;;;;;;;16.70;96.20;;;;;;4363674;32;42813;-78
2022/06/15 05:10:18;;;;;;;;;;;16.70;96.30;;;;;;4363482;32;43489;-78
2022/06/15 05:12:45;;;;;;;;;;;16.70;96.30;;;;;;4363909;32;42720;-78
2022/06/15 05:15:16;;;;;;;;;;;16.70;96.30;;;;;;4363647;32;44199;-78
2022/06/15 05:17:44;;;;;;;;;;;16.70;96.40;;;;;;4377117;32;44257;-78
2022/06/15 05:20:14;;;;;;;;;;;16.60;96.40;;;;;;4376992;32;38348;-77
2022/06/15 05:22:42;;;;;;;;;;;16.70;97.10;;;;;;4376783;32;43274;-78
2022/06/15 05:25:15;;;;;;;;;;;16.70;96.70;;;;;;4376731;32;43995;-78
2022/06/15 05:27:43;;;;;;;;;;;16.70;96.70;;;;;;4363817;32;43969;-77
2022/06/15 05:30:21;;;;;;;;;;;16.70;96.70;;;;;;4376751;32;43419;-78
2022/06/15 05:32:48;;;;;;;;;;;16.70;96.70;;;;;;4363179;32;42521;-78
2022/06/15 05:35:18;;;;;;;;;;;16.70;96.80;;;;;;4363188;32;43299;-77
2022/06/15 05:37:50;;;;;;;;;;;16.70;97.10;;;;;;4376594;32;44620;-77
2022/06/15 05:40:22;;;;;;;;;;;16.70;97.00;;;;;;4363718;32;43595;-77
2022/06/15 05:42:49;;;;;;;;;;;16.70;97.10;;;;;;4376839;32;44183;-77
2022/06/15 05:45:23;;;;;;;;;;;16.70;97.20;;;;;;4376937;32;43839;-77
2022/06/15 05:47:52;;;;;;;;;;;16.70;97.20;;;;;;4376461;32;42767;-77
2022/06/15 05:50:24;;;;;;;;;;;16.70;97.40;;;;;;4363498;32;43207;-77
2022/06/15 05:52:51;;;;;;;;;;;16.70;97.40;;;;;;4363427;32;42935;-77
2022/06/15 05:55:20;;;;;;;;;;;16.70;97.70;;;;;;4376955;32;43959;-78
2022/06/15 05:57:47;;;;;;;;;;;16.70;97.60;;;;;;4376459;32;43777;-76
2022/06/15 06:00:16;;;;;;;;;;;16.70;97.70;;;;;;4376708;32;43025;-77
2022/06/15 06:02:46;;;;;;;;;;;16.70;97.80;;;;;;4361995;32;42970;-79
2022/06/15 06:05:13;;;;;;;;;;;16.70;97.70;;;;;;4376319;32;45492;-78
2022/06/15 06:07:40;;;;;;;;;;;16.70;97.60;;;;;;4362816;32;43163;-77
2022/06/15 06:10:10;;;;;;;;;;;16.70;97.60;;;;;;4376181;32;42749;-77
2022/06/15 06:12:37;;;;;;;;;;;16.70;97.60;;;;;;4376556;32;42693;-77
2022/06/15 06:15:07;;;;;;;;;;;16.80;97.60;;;;;;4363205;32;43294;-77
2022/06/15 06:17:42;;;;;;;;;;;16.70;97.50;;;;;;4376180;32;44195;-77
2022/06/15 06:20:10;;;;;;;;;;;16.70;97.70;;;;;;4363277;32;44813;-77
2022/06/15 06:22:37;;;;;;;;;;;16.70;97.90;;;;;;4363080;32;43261;-77
2022/06/15 06:25:07;;;;;;;;;;;16.80;97.80;;;;;;4377651;32;20444;-77
2022/06/15 06:27:36;;;;;;;;;;;16.80;97.90;;;;;;4376345;32;42620;-77
2022/06/15 06:30:04;;;;;;;;;;;16.80;97.90;;;;;;4376167;32;42078;-77
2022/06/15 06:32:32;;;;;;;;;;;16.80;97.90;;;;;;4362358;32;46313;-77
2022/06/15 06:35:07;;;;;;;;;;;16.80;98.00;;;;;;4362827;32;45978;-77
2022/06/15 06:37:35;;;;;;;;;;;16.90;98.10;;;;;;4362942;32;43853;-77
2022/06/15 06:40:04;;;;;;;;;;;16.90;98.20;;;;;;4362645;32;45148;-77
2022/06/15 06:42:31;;;;;;;;;;;16.90;98.10;;;;;;4375860;32;43922;-79
2022/06/15 06:45:01;;;;;;;;;;;16.90;98.30;;;;;;4375890;32;44203;-77
2022/06/15 06:47:30;;;;;;;;;;;16.90;98.20;;;;;;4375903;32;43753;-77
2022/06/15 06:50:00;;;;;;;;;;;17.00;98.10;;;;;;4375539;32;43303;-77
2022/06/15 06:52:27;;;;;;;;;;;17.00;98.10;;;;;;4361899;32;43533;-77
2022/06/15 06:54:54;;;;;;;;;;;17.00;98.00;;;;;;4375830;32;43869;-77
2022/06/15 06:57:21;;;;;;;;;;;17.00;98.10;;;;;;4375035;32;45758;-78
2022/06/15 06:59:48;;;;;;;;;;;17.00;98.30;;;;;;4372997;32;42943;-77
2022/06/15 07:02:18;;;;;;;;;;;17.00;98.20;;;;;;4360885;32;44013;-77
2022/06/15 07:04:45;;;;;;;;;;;17.00;98.20;;;;;;4375180;32;42683;-78
2022/06/15 07:07:12;;;;;;;;;;;17.00;98.20;;;;;;4362034;32;42709;-77
2022/06/15 07:09:39;;;;;;;;;;;17.10;98.10;;;;;;4361618;32;43353;-77
2022/06/15 07:12:06;;;;;;;;;;;17.10;98.10;;;;;;4361807;32;43370;-77
2022/06/15 07:14:34;;;;;;;;;;;17.10;98.20;;;;;;4361768;32;43500;-77
2022/06/15 07:17:01;;;;;;;;;;;17.10;98.30;;;;;;4375327;32;43832;-76
2022/06/15 07:19:28;;;;;;;;;;;17.10;98.20;;;;;;4374507;32;43021;-75
2022/06/15 07:21:55;;;;;;;;;;;17.20;98.20;;;;;;4361003;32;42839;-76
2022/06/15 07:24:22;;;;;;;;;;;17.10;98.30;;;;;;4375153;32;43013;-77
2022/06/15 07:26:49;;;;;;;;;;;17.10;98.20;;;;;;4374286;32;43512;-77
2022/06/15 07:29:18;;;;;;;;;;;17.20;98.20;;;;;;4375455;32;43192;-76
2022/06/15 07:31:47;;;;;;;;;;;17.20;98.50;;;;;;4375344;32;43869;-77
2022/06/15 07:34:15;;;;;;;;;;;17.20;98.10;;;;;;4361917;32;43200;-77
2022/06/15 07:36:46;;;;;;;;;;;17.20;98.30;;;;;;4361868;32;44198;-77
2022/06/15 07:39:16;;;;;;;;;;;17.20;98.40;;;;;;4375493;32;43191;-77
2022/06/15 07:41:43;;;;;;;;;;;17.30;98.50;;;;;;4361685;32;42117;-77
2022/06/15 07:44:13;;;;;;;;;;;17.30;98.70;;;;;;4362004;32;43879;-77
2022/06/15 07:46:40;;;;;;;;;;;17.30;99.10;;;;;;4374855;32;44115;-76
2022/06/15 07:51:55;;;;;;;;;;;17.40;98.80;;;;;;4375286;32;44577;-77
2022/06/15 07:54:22;;;;;;;;;;;17.40;99.30;;;;;;4361976;32;43845;-77
2022/06/15 07:56:52;;;;;;;;;;;17.50;99.60;;;;;;4361812;32;43204;-77
2022/06/15 07:59:20;;;;;;;;;;;17.50;99.00;;;;;;4374677;32;44223;-77
2022/06/15 08:01:47;;;;;;;;;;;17.50;99.40;;;;;;4361414;32;44231;-77
2022/06/15 08:04:14;;;;;;;;;;;17.60;99.30;;;;;;4375117;32;44661;-77
2022/06/15 08:06:43;;;;;;;;;;;17.60;99.60;;;;;;4361833;32;43196;-77
2022/06/15 08:09:10;;;;;;;;;;;17.60;99.30;;;;;;4374909;32;42226;-77
2022/06/15 08:11:38;;;;;;;;;;;17.60;99.50;;;;;;4361099;32;43953;-77
2022/06/15 08:14:05;;;;;;;;;;;17.60;99.90;;;;;;4361517;32;42724;-77
2022/06/15 08:16:33;;;;;;;;;;;17.70;99.90;;;;;;4375000;32;43870;-77
2022/06/15 08:19:03;;;;;;;;;;;17.70;99.90;;;;;;4374798;32;44202;-77
2022/06/15 08:21:35;;;;;;;;;;;17.70;99.60;;;;;;4361160;32;43521;-77
2022/06/15 08:24:03;;;;;;;;;;;17.80;99.60;;;;;;4361506;32;42123;-77
2022/06/15 08:26:32;;;;;;;;;;;17.80;99.80;;;;;;4363608;32;45016;-77
2022/06/15 08:29:02;;;;;;;;;;;17.80;99.80;;;;;;4378132;32;43676;-77
2022/06/15 08:31:29;;;;;;;;;;;17.80;99.90;;;;;;4364221;32;43486;-77
2022/06/15 08:33:56;;;;;;;;;;;17.80;99.90;;;;;;4377993;32;44773;-77
2022/06/15 08:36:23;;;;;;;;;;;17.80;99.60;;;;;;4364250;32;45913;-77
2022/06/15 08:38:51;;;;;;;;;;;17.80;99.60;;;;;;4364476;32;43374;-77
2022/06/15 08:41:19;;;;;;;;;;;17.80;99.90;;;;;;4364136;32;44113;-77
2022/06/15 08:44:05;;;;;;;;;;;17.80;99.80;;;;;;4364563;32;43858;-77
2022/06/15 08:46:40;;;;;;;;;;;17.90;99.80;;;;;;4377830;32;43480;-78
2022/06/15 08:49:19;;;;;;;;;;;17.90;99.90;;;;;;4377349;32;43973;-78
2022/06/15 08:51:49;;;;;;;;;;;17.90;99.90;;;;;;4364241;32;44199;-78
2022/06/15 08:54:20;;;;;;;;;;;18.00;99.90;;;;;;4377488;32;43016;-78
2022/06/15 08:56:51;;;;;;;;;;;18.00;99.90;;;;;;4377823;32;43556;-78
2022/06/15 08:59:30;;;;;;;;;;;18.10;99.90;;;;;;4364166;32;44237;-78
2022/06/15 09:01:57;;;;;;;;;;;18.10;99.70;;;;;;4377422;32;43951;-78
2022/06/15 09:04:43;;;;;;;;;;;18.20;99.90;;;;;;4364190;32;43222;-77
2022/06/15 09:07:29;;;;;;;;;;;18.20;99.80;;;;;;4377680;32;44142;-78
2022/06/15 09:09:59;;;;;;;;;;;18.20;99.60;;;;;;4377451;32;43786;-77
2022/06/15 09:12:52;;;;;;;;;;;18.20;99.80;;;;;;4376795;32;45286;-78
2022/06/15 09:15:31;;;;;;;;;;;18.30;99.70;;;;;;4377677;32;44211;-78
2022/06/15 09:18:05;;;;;;;;;;;18.30;99.80;;;;;;4377588;32;42890;-78
2022/06/15 09:20:44;;;;;;;;;;;18.30;99.60;;;;;;4377254;32;44348;-77
2022/06/15 09:23:15;;;;;;;;;;;18.40;99.80;;;;;;4363979;32;44617;-77
2022/06/15 09:25:48;;;;;;;;;;;18.40;99.60;;;;;;4376939;32;42582;-78
2022/06/15 09:28:25;;;;;;;;;;;18.50;99.50;;;;;;4377321;32;43921;-78
2022/06/15 09:30:56;;;;;;;;;;;18.50;99.40;;;;;;4377312;32;43603;-78
2022/06/15 09:33:32;;;;;;;;;;;18.50;99.50;;;;;;4363034;32;43614;-78
2022/06/15 09:36:07;;;;;;;;;;;18.60;99.30;;;;;;4363847;32;43482;-78
2022/06/15 09:38:34;;;;;;;;;;;18.60;99.40;;;;;;4377255;32;43690;-78
2022/06/15 09:41:04;;;;;;;;;;;18.60;99.40;;;;;;4363319;32;44332;-78
2022/06/15 09:43:43;;;;;;;;;;;18.70;99.40;;;;;;4376751;32;44231;-78
2022/06/15 09:46:11;;;;;;;;;;;18.80;99.30;;;;;;4376561;32;44101;-78
2022/06/15 09:48:38;;;;;;;;;;;18.80;99.70;;;;;;4376710;32;43980;-78
2022/06/15 09:51:19;;;;;;;;;;;18.80;99.40;;;;;;4363125;32;42836;-78
2022/06/15 09:53:57;;;;;;;;;;;18.80;99.40;;;;;;4363509;32;43887;-79
2022/06/15 09:56:25;;;;;;;;;;;18.80;99.30;;;;;;4363300;32;43734;-78
2022/06/15 09:58:55;;;;;;;;;;;18.80;99.30;;;;;;4363990;32;20034;-78
2022/06/15 10:01:26;;;;;;;;;;;18.80;99.30;;;;;;4363579;32;44031;-80
2022/06/15 10:03:55;;;;;;;;;;;18.80;99.40;;;;;;4363151;32;44096;-80
2022/06/15 10:06:31;;;;;;;;;;;18.90;99.50;;;;;;4363024;32;43494;-79
2022/06/15 10:08:59;;;;;;;;;;;18.90;99.10;;;;;;4362860;32;43825;-79
2022/06/15 10:11:34;;;;;;;;;;;18.90;99.10;;;;;;4362773;32;44029;-80
2022/06/15 10:14:20;;;;;;;;;;;19.00;99.10;;;;;;4363211;32;43473;-79
2022/06/15 10:16:52;;;;;;;;;;;19.00;99.20;;;;;;4376688;32;44169;-80
2022/06/15 10:19:20;;;;;;;;;;;19.00;99.10;;;;;;4376004;32;43823;-80
2022/06/15 10:21:51;;;;;;;;;;;18.90;99.10;;;;;;4376062;32;43698;-79
2022/06/15 10:24:27;;;;;;;;;;;18.90;98.90;;;;;;4362757;32;42504;-78
2022/06/15 10:27:13;;;;;;;;;;;19.00;98.80;;;;;;4376501;32;45718;-79
2022/06/15 10:29:40;;;;;;;;;;;19.00;98.80;;;;;;4377255;32;20015;-79
2022/06/15 10:32:10;;;;;;;;;;;19.00;98.80;;;;;;4362450;32;44043;-79
2022/06/15 10:34:41;;;;;;;;;;;19.10;98.90;;;;;;4376340;32;46041;-78
2022/06/15 10:37:32;;;;;;;;;;;19.10;98.80;;;;;;4362564;32;43856;-78
2022/06/15 10:40:02;;;;;;;;;;;19.00;99.00;;;;;;4370206;32;42952;-78
2022/06/15 10:42:32;;;;;;;;;;;19.10;99.10;;;;;;4375924;32;43910;-80
2022/06/15 10:45:05;;;;;;;;;;;19.10;98.80;;;;;;4362166;32;44900;-80
2022/06/15 10:47:32;;;;;;;;;;;19.20;99.20;;;;;;4362402;32;44869;-79
2022/06/15 10:50:01;;;;;;;;;;;19.20;99.20;;;;;;4362219;32;43167;-80
2022/06/15 10:52:32;;;;;;;;;;;19.20;99.30;;;;;;4362439;32;42847;-79
2022/06/15 11:03:41;;;;;;;;;;;19.40;99.00;;;;;;4375263;32;45213;-79
2022/06/15 11:06:08;;;;;;;;;;;19.40;99.00;;;;;;4362206;32;43945;-80
2022/06/15 11:08:41;;;;;;;;;;;19.50;99.00;;;;;;4362307;32;44182;-79
2022/06/15 11:11:26;;;;;;;;;;;19.50;99.20;;;;;;4375623;32;44673;-80
2022/06/15 11:13:56;;;;;;;;;;;19.60;98.60;;;;;;4362203;32;42451;-79
2022/06/15 11:19:13;;;;;;;;;;;19.70;97.80;;;;;;4375718;32;43945;-79
2022/06/15 11:22:00;;;;;;;;;;;19.70;97.30;;;;;;4362075;32;42501;-78
2022/06/15 11:24:30;;;;;;;;;;;19.70;97.30;;;;;;4361987;32;45754;-80
2022/06/15 11:27:02;;;;;;;;;;;19.70;97.60;;;;;;4361680;32;42942;-80
2022/06/15 11:29:42;;;;;;;;;;;19.70;97.00;;;;;;4362160;32;43751;-79
2022/06/15 11:32:28;;;;;;;;;;;19.70;97.40;;;;;;4361553;32;43142;-79
2022/06/15 11:35:04;;;;;;;;;;;19.70;97.70;;;;;;4361916;32;45807;-79
2022/06/15 11:37:39;;;;;;;;;;;19.70;97.80;;;;;;4361551;32;42799;-80
2022/06/15 11:40:25;;;;;;;;;;;19.70;98.00;;;;;;4375648;32;45997;-80
2022/06/15 11:42:53;;;;;;;;;;;19.60;97.70;;;;;;4362210;32;44073;-81
2022/06/15 11:45:31;;;;;;;;;;;19.70;97.50;;;;;;4361832;32;43073;-80
2022/06/15 11:48:09;;;;;;;;;;;19.70;97.60;;;;;;4361832;32;44266;-80
2022/06/15 11:50:51;;;;;;;;;;;19.70;97.40;;;;;;4361790;32;44298;-79
2022/06/15 11:53:29;;;;;;;;;;;19.80;97.20;;;;;;4375170;32;44455;-78
2022/06/15 11:56:10;;;;;;;;;;;19.80;97.20;;;;;;4375344;32;44277;-80
2022/06/15 11:58:38;;;;;;;;;;;19.70;97.10;;;;;;4361882;32;43309;-78
2022/06/15 12:01:17;;;;;;;;;;;19.80;97.00;;;;;;4362423;32;20000;-78
2022/06/15 12:04:07;;;;;;;;;;;19.80;97.20;;;;;;4361525;32;42673;-77
2022/06/15 12:06:45;;;;;;;;;;;19.80;97.00;;;;;;4353795;32;43977;-79
2022/06/15 12:09:12;;;;;;;;;;;19.90;97.10;;;;;;4361762;32;43448;-79
2022/06/15 12:14:38;;;;;;;;;;;19.90;97.10;;;;;;4375028;32;42734;-79
2022/06/15 12:17:21;;;;;;;;;;;20.00;96.50;;;;;;4374531;32;44061;-79
2022/06/15 12:20:11;;;;;;;;;;;20.00;96.70;;;;;;4375076;32;45068;-79
2022/06/15 12:22:45;;;;;;;;;;;20.00;97.00;;;;;;4361310;32;44170;-79
2022/06/15 12:25:15;;;;;;;;;;;20.00;97.10;;;;;;4374535;32;44191;-79
2022/06/15 12:28:07;;;;;;;;;;;20.00;97.50;;;;;;4361050;32;44871;-79
2022/06/15 12:30:46;;;;;;;;;;;20.10;96.90;;;;;;4374931;32;45191;-80
2022/06/15 12:33:16;;;;;;;;;;;20.10;96.80;;;;;;4361378;32;43864;-78
2022/06/15 12:35:57;;;;;;;;;;;20.10;96.50;;;;;;4361707;32;44211;-79
2022/06/15 12:38:43;;;;;;;;;;;20.10;96.90;;;;;;4374823;32;44251;-80
2022/06/15 12:43:58;;;;;;;;;;;20.10;96.20;;;;;;4374781;32;44351;-78
2022/06/15 12:46:26;;;;;;;;;;;20.20;96.20;;;;;;4375011;32;45005;-78
2022/06/15 12:48:56;;;;;;;;;;;20.20;95.80;;;;;;4374284;32;42750;-78
2022/06/15 12:51:42;;;;;;;;;;;20.30;96.10;;;;;;4361146;32;43423;-77
2022/06/15 12:54:30;;;;;;;;;;;20.30;96.30;;;;;;4360619;32;44621;-78
2022/06/15 12:57:02;;;;;;;;;;;20.30;96.40;;;;;;4374351;32;44866;-78
2022/06/15 12:59:38;;;;;;;;;;;20.20;96.90;;;;;;4374873;32;43884;-78
2022/06/15 13:02:11;;;;;;;;;;;20.20;96.50;;;;;;4359513;33;20040;-79
2022/06/15 13:04:41;;;;;;;;;;;20.30;96.60;;;;;;4358546;33;45917;-78
2022/06/15 13:07:21;;;;;;;;;;;20.30;96.70;;;;;;4359731;32;44460;-77
2022/06/15 13:10:06;;;;;;;;;;;20.30;96.70;;;;;;4358061;33;44216;-77
2022/06/15 13:12:41;;;;;;;;;;;20.30;96.80;;;;;;4361177;32;43180;-77
2022/06/15 13:15:17;;;;;;;;;;;20.30;96.60;;;;;;4361770;32;46053;-77
2022/06/15 13:18:11;;;;;;;;;;;20.30;96.60;;;;;;4361444;32;44293;-77
2022/06/15 13:20:45;;;;;;;;;;;20.30;96.50;;;;;;4361284;32;44852;-77
2022/06/15 13:23:17;;;;;;;;;;;20.30;96.60;;;;;;4361423;32;44169;-77
2022/06/15 13:25:52;;;;;;;;;;;20.40;96.50;;;;;;4360821;32;44165;-77
2022/06/15 13:28:21;;;;;;;;;;;20.40;96.40;;;;;;4361116;32;42949;-78
2022/06/15 13:30:48;;;;;;;;;;;20.40;96.30;;;;;;4361490;32;44239;-78
2022/06/15 13:33:18;;;;;;;;;;;20.40;96.10;;;;;;4360912;32;44078;-78
2022/06/15 13:35:47;;;;;;;;;;;20.50;95.80;;;;;;4361076;32;43945;-78
2022/06/15 13:38:27;;;;;;;;;;;20.50;95.80;;;;;;4360949;32;46094;-78
2022/06/15 13:40:59;;;;;;;;;;;20.60;96.00;;;;;;4362197;32;45834;-78
2022/06/15 13:43:40;;;;;;;;;;;20.60;96.10;;;;;;4361221;32;43282;-79
2022/06/15 13:46:18;;;;;;;;;;;20.60;96.20;;;;;;4361989;32;45811;-80
2022/06/15 13:48:46;;;;;;;;;;;20.60;96.50;;;;;;4361478;32;44162;-79
2022/06/15 13:51:19;;;;;;;;;;;20.60;96.00;;;;;;4362026;32;43842;-79
2022/06/15 13:54:01;;;;;;;;;;;20.60;96.10;;;;;;4361791;32;43863;-79
2022/06/15 13:56:47;;;;;;;;;;;20.60;96.10;;;;;;4361930;32;42840;-80
2022/06/15 13:59:14;;;;;;;;;;;20.60;94.90;;;;;;4361187;32;44480;-80
2022/06/15 14:02:00;;;;;;;;;;;20.60;95.30;;;;;;4362961;32;44950;-79
2022/06/15 14:04:27;;;;;;;;;;;20.70;95.60;;;;;;4363307;32;44324;-79
2022/06/15 14:06:55;;;;;;;;;;;20.70;95.80;;;;;;4376200;32;44175;-79
2022/06/15 14:09:28;;;;;;;;;;;20.70;95.70;;;;;;4376505;32;45102;-80
2022/06/15 14:12:21;;;;;;;;;;;20.70;95.80;;;;;;4376333;32;43297;-80
2022/06/15 14:14:48;;;;;;;;;;;20.80;95.20;;;;;;4360834;32;43186;-80
2022/06/15 14:17:38;;;;;;;;;;;20.80;95.00;;;;;;4376627;32;43053;-79
2022/06/15 14:20:15;;;;;;;;;;;20.80;95.50;;;;;;4363069;32;43486;-79
2022/06/15 14:22:46;;;;;;;;;;;20.80;95.70;;;;;;4375594;32;42931;-78
2022/06/15 14:25:50;;;;;;;;;;;20.80;95.60;;;;;;4365277;32;45908;-79
2022/06/15 14:28:21;;;;;;;;;;;20.80;94.50;;;;;;4363013;32;43478;-78
2022/06/15 14:30:57;;;;;;;;;;;20.80;95.30;;;;;;4362933;32;45953;-78
2022/06/15 14:33:27;;;;;;;;;;;20.80;95.30;;;;;;4362546;32;42702;-78
2022/06/15 14:36:14;;;;;;;;;;;20.80;95.40;;;;;;4362336;32;44215;-78
2022/06/15 14:38:42;;;;;;;;;;;20.80;95.30;;;;;;4362660;32;43695;-79
2022/06/15 14:41:15;;;;;;;;;;;20.90;95.10;;;;;;4362320;32;44296;-78
2022/06/15 14:43:43;;;;;;;;;;;20.90;94.80;;;;;;4376317;32;43732;-78
2022/06/15 14:46:12;;;;;;;;;;;20.90;94.10;;;;;;4362241;32;43906;-77
2022/06/15 14:48:39;;;;;;;;;;;21.00;94.10;;;;;;4362238;32;43289;-78
2022/06/15 14:51:11;;;;;;;;;;;20.90;93.90;;;;;;4362191;32;43470;-78
2022/06/15 14:53:54;;;;;;;;;;;21.00;93.90;;;;;;4375477;32;43481;-78
2022/06/15 14:56:22;;;;;;;;;;;21.00;94.10;;;;;;4362458;32;44316;-77
2022/06/15 14:59:09;;;;;;;;;;;21.00;94.30;;;;;;4361902;32;43497;-77
2022/06/15 15:01:53;;;;;;;;;;;21.00;94.10;;;;;;4375380;32;43597;-78
2022/06/15 15:04:28;;;;;;;;;;;21.00;93.80;;;;;;4363888;32;20421;-78